createdAt,value
2023-04-09T00:01:56.687Z,28.67
2023-04-09T00:04:24.588Z,26.85
2023-04-09T00:06:52.488Z,26.13
2023-04-09T00:09:20.814Z,30.80
2023-04-09T00:11:48.690Z,29.20
2023-04-09T00:14:17.962Z,32.40
2023-04-09T00:16:45.974Z,27.27
2023-04-09T00:19:13.932Z,24.45
2023-04-09T00:21:41.807Z,29.75
2023-04-09T00:24:09.899Z,25.98
2023-04-09T00:26:37.739Z,30.85
2023-04-09T00:29:06.026Z,29.00
2023-04-09T00:31:35.538Z,28.95
2023-04-09T00:34:03.452Z,27.42
2023-04-09T00:36:31.280Z,26.17
2023-04-09T00:38:59.099Z,27.75
2023-04-09T00:41:26.995Z,31.85
2023-04-09T00:43:57.259Z,28.55
2023-04-09T00:46:25.268Z,28.60
2023-04-09T00:48:54.926Z,30.67
2023-04-09T00:51:22.837Z,28.88
2023-04-09T00:53:51.505Z,33.15
2023-04-09T00:56:21.507Z,26.90
2023-04-09T00:58:49.670Z,29.73
2023-04-09T01:01:17.755Z,32.65
2023-04-09T01:03:45.947Z,30.23
2023-04-09T01:06:23.472Z,27.70
2023-04-09T01:08:59.384Z,30.13
2023-04-09T01:11:35.839Z,27.45
2023-04-09T01:14:13.456Z,31.23
2023-04-09T01:16:45.700Z,34.80
2023-04-09T01:19:26.191Z,30.13
2023-04-09T01:21:57.314Z,28.40
2023-04-09T01:24:41.077Z,31.05
2023-04-09T01:27:10.021Z,30.77
2023-04-09T01:29:46.116Z,32.00
2023-04-09T01:32:17.524Z,26.88
2023-04-09T01:34:47.185Z,30.65
2023-04-09T01:37:16.620Z,27.38
2023-04-09T01:39:45.089Z,29.05
2023-04-09T01:42:13.848Z,28.55
2023-04-09T01:44:45.859Z,28.05
2023-04-09T01:47:14.488Z,29.55
2023-04-09T01:49:43.287Z,32.92
2023-04-09T01:52:11.464Z,30.65
2023-04-09T01:54:39.344Z,32.70
2023-04-09T01:57:07.186Z,28.17
2023-04-09T01:59:35.037Z,35.92
2023-04-09T02:02:11.260Z,28.23
2023-04-09T02:04:42.621Z,35.08
2023-04-09T02:07:16.950Z,33.45
2023-04-09T02:09:48.824Z,29.25
2023-04-09T02:12:19.678Z,29.38
2023-04-09T02:14:49.322Z,30.48
2023-04-09T02:17:18.794Z,35.08
2023-04-09T02:19:48.164Z,28.02
2023-04-09T02:22:17.043Z,26.98
2023-04-09T02:24:45.162Z,29.23
2023-04-09T02:27:13.089Z,27.83
2023-04-09T02:29:41.059Z,30.95
2023-04-09T02:32:09.205Z,29.92
2023-04-09T02:34:38.402Z,30.38
2023-04-09T02:37:06.228Z,32.92
2023-04-09T02:39:34.362Z,32.90
2023-04-09T02:42:02.215Z,34.70
2023-04-09T02:44:30.104Z,29.77
2023-04-09T02:46:57.930Z,34.03
2023-04-09T02:49:25.764Z,33.47
2023-04-09T02:51:55.021Z,30.92
2023-04-09T02:54:22.973Z,31.45
2023-04-09T02:56:50.831Z,30.75
2023-04-09T02:59:19.126Z,35.03
2023-04-09T03:01:47.015Z,33.30
2023-04-09T03:04:15.031Z,30.45
2023-04-09T03:06:42.959Z,32.03
2023-04-09T03:09:12.166Z,36.28
2023-04-09T03:11:40.001Z,32.08
2023-04-09T03:14:07.833Z,33.25
2023-04-09T03:16:35.692Z,33.65
2023-04-09T03:19:03.512Z,32.88
2023-04-09T03:21:32.002Z,33.38
2023-04-09T03:23:59.828Z,32.85
2023-04-09T03:26:29.004Z,34.38
2023-04-09T03:28:56.999Z,35.78
2023-04-09T03:31:24.897Z,34.55
2023-04-09T03:33:52.691Z,31.40
2023-04-09T03:36:20.555Z,32.35
2023-04-09T03:38:48.584Z,29.77
2023-04-09T03:41:16.886Z,36.67
2023-04-09T03:43:46.140Z,40.03
2023-04-09T03:46:14.265Z,31.13
2023-04-09T03:48:42.314Z,35.15
2023-04-09T03:51:13.110Z,33.40
2023-04-09T03:53:40.984Z,34.85
2023-04-09T03:56:09.498Z,34.70
2023-04-09T03:58:37.935Z,32.75
2023-04-09T04:01:07.202Z,36.13
2023-04-09T04:03:35.111Z,34.92
2023-04-09T04:06:03.878Z,40.88
2023-04-09T04:08:31.784Z,40.58
2023-04-09T04:11:05.609Z,36.50
2023-04-09T04:13:33.532Z,34.80
2023-04-09T04:16:01.452Z,39.15
2023-04-09T04:18:30.810Z,44.80
2023-04-09T04:20:58.649Z,37.95
2023-04-09T04:23:26.546Z,41.53
2023-04-09T04:25:54.396Z,39.72
2023-04-09T04:28:22.230Z,41.00
2023-04-09T04:30:50.085Z,40.42
2023-04-09T04:33:17.898Z,39.67
2023-04-09T04:35:47.621Z,35.17
2023-04-09T04:38:15.626Z,39.30
2023-04-09T04:40:43.467Z,36.95
2023-04-09T04:43:11.336Z,37.30
2023-04-09T04:45:39.246Z,34.08
2023-04-09T04:48:07.145Z,34.38
2023-04-09T04:50:35.002Z,35.08
2023-04-09T04:53:04.375Z,39.95
2023-04-09T04:55:32.271Z,38.53
2023-04-09T04:58:00.198Z,35.95
2023-04-09T05:00:28.073Z,32.70
2023-04-09T05:02:56.153Z,41.38
2023-04-09T05:05:24.221Z,36.20
2023-04-09T05:07:52.058Z,38.10
2023-04-09T05:10:21.757Z,37.00
2023-04-09T05:12:49.611Z,36.30
2023-04-09T05:15:17.777Z,39.80
2023-04-09T05:17:45.858Z,39.08
2023-04-09T05:20:14.834Z,38.22
2023-04-09T05:22:42.756Z,34.28
2023-04-09T05:25:11.268Z,36.97
2023-04-09T05:27:40.419Z,39.35
2023-04-09T05:30:09.652Z,32.72
2023-04-09T05:32:37.539Z,38.10
2023-04-09T05:35:06.239Z,35.72
2023-04-09T05:37:34.064Z,44.47
2023-04-09T05:40:01.940Z,37.67
2023-04-09T05:42:29.851Z,35.88
2023-04-09T05:44:59.079Z,36.20
2023-04-09T05:47:26.956Z,37.78
2023-04-09T05:49:54.985Z,41.15
2023-04-09T05:52:22.835Z,37.50
2023-04-09T05:54:50.751Z,36.22
2023-04-09T05:57:18.620Z,34.50
2023-04-09T05:59:46.496Z,27.42
2023-04-09T06:02:15.979Z,31.65
2023-04-09T06:04:44.050Z,31.90
2023-04-09T06:07:11.912Z,34.50
2023-04-09T06:09:39.773Z,34.40
2023-04-09T06:12:07.627Z,31.80
2023-04-09T06:14:35.479Z,32.53
2023-04-09T06:17:03.459Z,34.25
2023-04-09T06:19:32.721Z,33.50
2023-04-09T06:22:00.597Z,31.50
2023-04-09T06:24:28.489Z,33.42
2023-04-09T06:26:56.606Z,28.80
2023-04-09T06:29:24.568Z,26.75
2023-04-09T06:31:52.598Z,31.98
2023-04-09T06:34:20.451Z,26.88
2023-04-09T06:36:49.666Z,27.50
2023-04-09T06:39:17.560Z,30.08
2023-04-09T06:41:46.413Z,27.33
2023-04-09T06:44:14.369Z,26.40
2023-04-09T06:46:42.288Z,27.13
2023-04-09T06:49:10.201Z,30.08
2023-04-09T06:51:38.093Z,22.30
2023-04-09T06:54:07.362Z,26.83
2023-04-09T06:56:35.372Z,25.10
2023-04-09T06:59:03.604Z,23.25
2023-04-09T07:01:31.535Z,21.25
2023-04-09T07:03:59.458Z,22.70
2023-04-09T07:06:27.352Z,21.25
2023-04-09T07:08:55.837Z,21.80
2023-04-09T07:11:25.298Z,21.27
2023-04-09T07:13:53.714Z,20.20
2023-04-09T07:16:21.750Z,20.42
2023-04-09T07:18:49.683Z,20.45
2023-04-09T07:21:18.084Z,19.90
2023-04-09T07:23:46.736Z,17.48
2023-04-09T07:26:14.908Z,18.30
2023-04-09T07:28:44.093Z,17.48
2023-04-09T07:31:12.921Z,19.33
2023-04-09T07:33:40.761Z,19.60
2023-04-09T07:36:08.668Z,19.40
2023-04-09T07:38:36.547Z,16.90
2023-04-09T07:41:04.425Z,17.35
2023-04-09T07:43:32.979Z,13.95
2023-04-09T07:46:02.154Z,16.17
2023-04-09T07:48:29.988Z,12.25
2023-04-09T07:50:57.826Z,12.98
2023-04-09T07:53:25.985Z,13.50
2023-04-09T07:55:53.869Z,14.85
2023-04-09T07:58:21.685Z,14.10
2023-04-09T08:00:49.598Z,16.88
2023-04-09T08:03:19.414Z,13.93
2023-04-09T08:05:47.522Z,10.80
2023-04-09T08:08:15.406Z,7.50
2023-04-09T08:10:43.322Z,9.63
2023-04-09T08:13:12.035Z,8.75
2023-04-09T08:15:39.999Z,6.03
2023-04-09T08:18:07.900Z,6.82
2023-04-09T08:20:37.086Z,6.63
2023-04-09T08:23:04.929Z,7.55
2023-04-09T08:25:32.760Z,8.52
2023-04-09T08:28:00.624Z,7.30
2023-04-09T08:30:28.633Z,6.95
2023-04-09T08:32:57.396Z,7.47
2023-04-09T08:35:25.450Z,7.93
2023-04-09T08:37:54.788Z,7.93
2023-04-09T08:40:22.791Z,9.25
2023-04-09T08:42:55.169Z,8.52
2023-04-09T08:45:23.344Z,5.15
2023-04-09T08:47:52.890Z,3.05
2023-04-09T08:50:21.435Z,3.83
2023-04-09T08:52:49.913Z,4.20
2023-04-09T08:55:19.219Z,3.72
2023-04-09T08:57:47.156Z,5.28
2023-04-09T09:00:15.465Z,6.13
2023-04-09T09:03:05.252Z,6.05
2023-04-09T09:05:41.040Z,6.05
2023-04-09T09:08:10.324Z,5.85
2023-04-09T09:10:40.947Z,5.40
2023-04-09T09:13:19.423Z,5.95
2023-04-09T09:15:49.909Z,7.85
2023-04-09T09:18:18.833Z,6.20
2023-04-09T09:20:46.783Z,5.60
2023-04-09T09:23:14.833Z,5.68
2023-04-09T09:25:44.859Z,6.15
2023-04-09T09:28:13.771Z,8.40
2023-04-09T09:30:41.869Z,10.63
2023-04-09T09:33:11.254Z,8.50
2023-04-09T09:35:57.850Z,7.90
2023-04-09T09:38:26.034Z,8.55
2023-04-09T09:40:55.229Z,10.52
2023-04-09T09:43:23.562Z,9.82
2023-04-09T09:45:51.591Z,10.40
2023-04-09T09:48:19.445Z,9.40
2023-04-09T09:50:49.048Z,9.00
2023-04-09T09:53:21.426Z,8.02
2023-04-09T09:55:54.502Z,7.47
2023-04-09T09:58:28.834Z,8.65
2023-04-09T10:00:57.474Z,8.07
2023-04-09T10:03:28.601Z,7.10
2023-04-09T10:05:57.495Z,8.13
2023-04-09T10:08:25.446Z,6.38
2023-04-09T10:10:53.773Z,7.20
2023-04-09T10:13:32.252Z,8.52
2023-04-09T10:16:00.732Z,8.30
2023-04-09T10:18:28.972Z,7.93
2023-04-09T10:21:00.787Z,8.23
2023-04-09T10:23:34.909Z,6.32
2023-04-09T10:26:02.986Z,6.35
2023-04-09T10:28:32.314Z,8.25
2023-04-09T10:31:00.741Z,8.82
2023-04-09T10:33:29.396Z,6.75
2023-04-09T10:36:02.180Z,7.85
2023-04-09T10:38:37.709Z,6.90
2023-04-09T10:41:16.528Z,6.43
2023-04-09T10:43:48.428Z,6.63
2023-04-09T10:46:30.637Z,7.20
2023-04-09T10:49:17.889Z,8.20
2023-04-09T10:52:02.430Z,11.00
2023-04-09T10:54:43.783Z,8.10
2023-04-09T10:57:14.034Z,10.68
2023-04-09T10:59:45.883Z,7.60
2023-04-09T11:02:56.167Z,9.00
2023-04-09T11:05:30.141Z,7.85
2023-04-09T11:08:05.498Z,7.75
2023-04-09T11:10:33.996Z,8.40
2023-04-09T11:13:02.426Z,9.07
2023-04-09T11:15:33.041Z,8.68
2023-04-09T11:18:02.133Z,7.13
2023-04-09T11:20:31.134Z,9.23
2023-04-09T11:23:00.556Z,6.68
2023-04-09T11:25:30.684Z,4.57
2023-04-09T11:27:58.739Z,6.72
2023-04-09T11:30:27.287Z,5.18
2023-04-09T11:32:56.537Z,6.72
2023-04-09T11:35:24.896Z,8.57
2023-04-09T11:37:53.181Z,4.45
2023-04-09T11:40:22.021Z,6.47
2023-04-09T11:42:51.080Z,5.40
2023-04-09T11:45:20.665Z,6.93
2023-04-09T11:47:48.951Z,4.75
2023-04-09T11:50:18.639Z,5.72
2023-04-09T11:52:47.006Z,4.70
2023-04-09T11:55:25.236Z,5.25
2023-04-09T11:57:54.731Z,4.82
2023-04-09T12:00:24.964Z,6.18
2023-04-09T12:03:01.862Z,5.97
2023-04-09T12:05:32.937Z,5.63
2023-04-09T12:08:02.703Z,6.00
2023-04-09T12:10:31.867Z,6.55
2023-04-09T12:13:04.316Z,6.45
2023-04-09T12:15:36.885Z,5.38
2023-04-09T12:18:08.470Z,7.10
2023-04-09T12:20:39.607Z,6.15
2023-04-09T12:23:08.897Z,6.03
2023-04-09T12:25:38.452Z,6.63
2023-04-09T12:28:07.644Z,5.40
2023-04-09T12:30:36.459Z,5.18
2023-04-09T12:33:05.653Z,5.13
2023-04-09T12:35:34.539Z,5.35
2023-04-09T12:38:04.967Z,5.28
2023-04-09T12:40:33.053Z,5.07
2023-04-09T12:43:01.429Z,4.47
2023-04-09T12:45:30.369Z,4.38
2023-04-09T12:47:58.417Z,5.40
2023-04-09T12:50:26.737Z,5.20
2023-04-09T12:52:54.669Z,5.38
2023-04-09T12:55:23.960Z,6.00
2023-04-09T12:57:52.155Z,5.50
2023-04-09T13:00:20.080Z,7.80
2023-04-09T13:02:48.132Z,5.25
2023-04-09T13:05:16.138Z,7.95
2023-04-09T13:07:44.404Z,6.13
2023-04-09T13:10:12.453Z,6.15
2023-04-09T13:12:41.774Z,5.82
2023-04-09T13:15:10.074Z,7.18
2023-04-09T13:17:38.073Z,5.40
2023-04-09T13:20:06.999Z,5.70
2023-04-09T13:22:34.889Z,6.60
2023-04-09T13:25:03.136Z,6.07
2023-04-09T13:27:31.011Z,5.47
2023-04-09T13:30:00.274Z,6.88
2023-04-09T13:32:28.144Z,5.80
2023-04-09T13:34:57.850Z,7.22
2023-04-09T13:37:25.979Z,6.22
2023-04-09T13:39:53.850Z,5.32
2023-04-09T13:42:21.724Z,5.55
2023-04-09T13:44:49.583Z,5.85
2023-04-09T13:47:18.940Z,6.32
2023-04-09T13:49:46.965Z,5.78
2023-04-09T13:52:15.302Z,6.97
2023-04-09T13:54:43.228Z,6.28
2023-04-09T13:57:11.265Z,8.30
2023-04-09T13:59:41.582Z,6.57
2023-04-09T14:02:10.170Z,5.60
2023-04-09T14:04:39.529Z,9.60
2023-04-09T14:07:07.482Z,5.70
2023-04-09T14:09:35.456Z,5.75
2023-04-09T14:12:03.333Z,5.30
2023-04-09T14:14:31.174Z,5.38
2023-04-09T14:16:59.050Z,6.18
2023-04-09T14:19:26.961Z,7.50
2023-04-09T14:21:56.604Z,6.07
2023-04-09T14:24:24.454Z,7.03
2023-04-09T14:26:53.437Z,5.78
2023-04-09T14:29:21.997Z,5.82
2023-04-09T14:31:50.063Z,5.70
2023-04-09T14:34:18.067Z,6.38
2023-04-09T14:36:45.964Z,5.88
2023-04-09T14:39:15.686Z,6.35
2023-04-09T14:41:43.598Z,6.63
2023-04-09T14:44:11.514Z,5.07
2023-04-09T14:46:39.470Z,5.85
2023-04-09T14:49:07.647Z,5.03
2023-04-09T14:51:35.790Z,6.43
2023-04-09T14:54:03.676Z,5.70
2023-04-09T14:56:32.953Z,6.10
2023-04-09T14:59:00.937Z,5.10
2023-04-09T15:01:29.687Z,6.80
2023-04-09T15:03:58.400Z,6.45
2023-04-09T15:06:27.893Z,7.07
2023-04-09T15:08:55.864Z,5.53
2023-04-09T15:11:23.694Z,4.78
2023-04-09T15:13:53.842Z,6.10
2023-04-09T15:16:22.561Z,8.52
2023-04-09T15:18:51.996Z,5.97
2023-04-09T15:21:20.725Z,6.95
2023-04-09T15:23:48.696Z,4.90
2023-04-09T15:26:17.034Z,8.23
2023-04-09T15:28:46.071Z,8.65
2023-04-09T15:31:15.534Z,6.75
2023-04-09T15:33:44.738Z,5.25
2023-04-09T15:36:12.770Z,5.10
2023-04-09T15:38:40.800Z,5.25
2023-04-09T15:41:08.736Z,4.43
2023-04-09T15:43:36.636Z,6.10
2023-04-09T15:46:09.949Z,5.32
2023-04-09T15:48:39.305Z,5.30
2023-04-09T15:51:08.041Z,6.13
2023-04-09T15:53:36.004Z,8.38
2023-04-09T15:56:05.564Z,6.75
2023-04-09T15:58:33.496Z,6.63
2023-04-09T16:01:01.493Z,6.95
2023-04-09T16:03:31.578Z,9.68
2023-04-09T16:06:03.830Z,8.52
2023-04-09T16:08:31.697Z,12.20
2023-04-09T16:10:59.574Z,8.38
2023-04-09T16:13:27.775Z,8.00
2023-04-09T16:15:55.756Z,9.00
2023-04-09T16:18:23.737Z,8.48
2023-04-09T16:20:54.648Z,9.82
2023-04-09T16:23:24.765Z,8.23
2023-04-09T16:25:53.063Z,6.82
2023-04-09T16:28:22.053Z,8.65
2023-04-09T16:30:51.084Z,8.57
2023-04-09T16:33:18.938Z,7.97
2023-04-09T16:35:46.968Z,9.00
2023-04-09T16:38:14.789Z,7.95
2023-04-09T16:40:44.567Z,8.63
2023-04-09T16:43:12.392Z,8.68
2023-04-09T16:45:40.259Z,7.45
2023-04-09T16:48:12.097Z,7.00
2023-04-09T16:50:40.670Z,9.68
2023-04-09T16:53:08.934Z,8.00
2023-04-09T16:55:36.982Z,6.20
2023-04-09T16:58:06.151Z,6.53
2023-04-09T17:00:35.286Z,7.32
2023-04-09T17:03:03.154Z,6.45
2023-04-09T17:05:31.441Z,8.40
2023-04-09T17:07:59.308Z,8.10
2023-04-09T17:10:28.242Z,9.05
2023-04-09T17:12:56.379Z,8.38
2023-04-09T17:15:25.847Z,8.00
2023-04-09T17:17:53.909Z,10.77
2023-04-09T17:20:22.725Z,8.38
2023-04-09T17:22:50.667Z,8.60
2023-04-09T17:25:20.398Z,8.10
2023-04-09T17:27:48.347Z,9.88
2023-04-09T17:30:16.364Z,8.27
2023-04-09T17:32:45.901Z,8.07
2023-04-09T17:35:14.032Z,8.13
2023-04-09T17:37:41.942Z,8.15
2023-04-09T17:40:12.407Z,8.98
2023-04-09T17:42:40.829Z,9.65
2023-04-09T17:45:10.086Z,8.27
2023-04-09T17:47:39.058Z,9.45
2023-04-09T17:50:09.677Z,9.50
2023-04-09T17:52:37.614Z,8.32
2023-04-09T17:55:09.120Z,8.43
2023-04-09T17:57:36.967Z,7.82
2023-04-09T18:00:05.992Z,8.18
2023-04-09T18:02:34.689Z,8.90
2023-04-09T18:05:04.400Z,7.35
2023-04-09T18:07:34.319Z,9.10
2023-04-09T18:10:03.033Z,7.40
2023-04-09T18:12:31.015Z,9.30
2023-04-09T18:14:58.947Z,8.57
2023-04-09T18:17:27.229Z,9.57
2023-04-09T18:19:58.098Z,7.88
2023-04-09T18:22:26.903Z,10.20
2023-04-09T18:24:56.513Z,8.95
2023-04-09T18:27:24.457Z,8.27
2023-04-09T18:29:52.318Z,10.98
2023-04-09T18:32:20.293Z,7.78
2023-04-09T18:34:48.347Z,11.80
2023-04-09T18:37:16.562Z,8.52
2023-04-09T18:39:44.432Z,9.00
2023-04-09T18:42:13.657Z,8.73
2023-04-09T18:44:41.561Z,7.95
2023-04-09T18:47:10.040Z,9.00
2023-04-09T18:49:37.939Z,8.27
2023-04-09T18:52:06.332Z,8.90
2023-04-09T18:54:34.904Z,9.65
2023-04-09T18:57:04.147Z,8.40
2023-04-09T18:59:34.786Z,7.78
2023-04-09T19:02:03.564Z,9.07
2023-04-09T19:04:35.243Z,10.55
2023-04-09T19:07:03.347Z,11.45
2023-04-09T19:09:31.197Z,10.70
2023-04-09T19:11:59.056Z,13.35
2023-04-09T19:14:27.317Z,13.63
2023-04-09T19:16:58.551Z,11.63
2023-04-09T19:19:26.404Z,11.02
2023-04-09T19:21:54.238Z,10.48
2023-04-09T19:24:22.092Z,9.68
2023-04-09T19:26:50.833Z,12.45
2023-04-09T19:29:18.672Z,12.40
2023-04-09T19:31:46.944Z,12.57
2023-04-09T19:34:16.395Z,10.82
2023-04-09T19:36:44.260Z,15.13
2023-04-09T19:39:12.379Z,12.68
2023-04-09T19:41:40.610Z,11.55
2023-04-09T19:44:09.108Z,12.13
2023-04-09T19:46:37.106Z,11.75
2023-04-09T19:49:05.025Z,12.57
2023-04-09T19:51:34.196Z,17.20
2023-04-09T19:54:02.160Z,17.20
2023-04-09T19:56:30.036Z,15.35
2023-04-09T19:58:58.296Z,13.52
2023-04-09T20:01:26.333Z,15.38
2023-04-09T20:03:54.522Z,15.82
2023-04-09T20:06:22.821Z,12.00
2023-04-09T20:08:53.134Z,12.93
2023-04-09T20:11:21.225Z,12.45
2023-04-09T20:13:49.052Z,15.80
2023-04-09T20:16:17.063Z,14.20
2023-04-09T20:18:44.891Z,12.73
2023-04-09T20:21:14.216Z,12.63
2023-04-09T20:23:42.341Z,12.98
2023-04-09T20:26:13.345Z,15.05
2023-04-09T20:28:41.267Z,14.05
2023-04-09T20:31:09.118Z,15.32
2023-04-09T20:33:37.010Z,14.85
2023-04-09T20:36:05.316Z,14.68
2023-04-09T20:38:33.284Z,14.13
2023-04-09T20:41:01.086Z,14.45
2023-04-09T20:43:30.489Z,15.50
2023-04-09T20:45:58.442Z,17.65
2023-04-09T20:48:26.535Z,18.70
2023-04-09T20:50:54.373Z,16.17
2023-04-09T20:53:24.223Z,17.52
2023-04-09T20:55:53.069Z,15.85
2023-04-09T20:58:21.249Z,17.10
2023-04-09T21:00:50.723Z,16.95
2023-04-09T21:03:18.790Z,14.45
2023-04-09T21:05:46.744Z,16.55
2023-04-09T21:08:15.377Z,16.77
2023-04-09T21:10:43.230Z,15.00
2023-04-09T21:13:11.061Z,17.73
2023-04-09T21:15:38.891Z,16.90
2023-04-09T21:18:08.111Z,18.02
2023-04-09T21:20:36.027Z,21.02
2023-04-09T21:23:03.842Z,16.05
2023-04-09T21:25:31.757Z,19.92
2023-04-09T21:27:59.596Z,18.20
2023-04-09T21:30:27.796Z,18.45
2023-04-09T21:32:55.783Z,18.00
2023-04-09T21:35:25.003Z,18.58
2023-04-09T21:37:52.849Z,17.95
2023-04-09T21:40:20.857Z,19.02
2023-04-09T21:42:48.697Z,16.42
2023-04-09T21:45:16.610Z,17.65
2023-04-09T21:47:45.449Z,18.63
2023-04-09T21:50:13.428Z,16.90
2023-04-09T21:52:42.854Z,17.48
2023-04-09T21:55:11.013Z,17.75
2023-04-09T21:57:38.973Z,19.02
2023-04-09T22:00:09.361Z,17.90
2023-04-09T22:02:38.483Z,19.45
2023-04-09T22:05:07.414Z,19.17
2023-04-09T22:07:37.122Z,19.88
2023-04-09T22:10:07.540Z,18.83
2023-04-09T22:12:36.136Z,18.60
2023-04-09T22:15:04.879Z,19.42
2023-04-09T22:17:32.779Z,17.90
2023-04-09T22:20:00.667Z,19.98
2023-04-09T22:22:28.512Z,19.73
2023-04-09T22:24:56.562Z,18.98
2023-04-09T22:27:25.980Z,19.75
2023-04-09T22:29:53.817Z,18.90
2023-04-09T22:32:21.684Z,17.10
2023-04-09T22:34:49.531Z,20.13
2023-04-09T22:37:17.616Z,18.90
2023-04-09T22:39:45.470Z,18.65
2023-04-09T22:42:13.359Z,17.70
2023-04-09T22:44:42.554Z,18.05
2023-04-09T22:47:10.730Z,22.05
2023-04-09T22:49:38.600Z,19.60
2023-04-09T22:52:06.567Z,22.27
2023-04-09T22:54:34.559Z,18.85
2023-04-09T22:57:02.972Z,21.85
2023-04-09T22:59:39.637Z,17.85
2023-04-09T23:02:10.113Z,16.65
2023-04-09T23:04:38.208Z,19.42
2023-04-09T23:07:06.073Z,17.60
2023-04-09T23:09:34.032Z,21.08
2023-04-09T23:12:02.645Z,21.00
2023-04-09T23:14:30.758Z,17.48
2023-04-09T23:16:58.879Z,23.55
2023-04-09T23:19:28.086Z,20.05
2023-04-09T23:21:55.969Z,21.27
2023-04-09T23:24:23.819Z,20.25
2023-04-09T23:26:51.731Z,24.02
2023-04-09T23:29:19.653Z,18.50
2023-04-09T23:31:47.558Z,21.77
2023-04-09T23:34:15.499Z,18.40
2023-04-09T23:36:44.695Z,18.02
2023-04-09T23:39:12.594Z,18.10
2023-04-09T23:41:40.598Z,17.15
2023-04-09T23:44:08.488Z,19.45
2023-04-09T23:46:36.564Z,20.13
2023-04-09T23:49:04.559Z,21.35
2023-04-09T23:51:32.658Z,20.15
2023-04-09T23:54:02.778Z,19.27
2023-04-09T23:56:30.598Z,21.02
2023-04-09T23:58:58.647Z,19.58
